Jaipur, India

5:11 AM IST on July 29, 2016 (GMT +0530)
Jaipur | | Change Station

Elev 1280 ft 26.82 °N, 75.81 °E | Updated 11 minutes ago

Haze
Haze
81 °F
Feels Like 88 °F
N
1
Wind Variable Wind from Variable

Today
High -- | Low -- °F
--% Chance of Precip.
Yesterday
High -- | Low -- °F
Precip. -- in
Pressure 29.62 in
Visibility 1.6 miles
Clouds Scattered Clouds 2500 ft
Few 3000 ft
Overcast 9000 ft
Heat Index 88 °F
Dew Point 79 °F
Humidity 94%
Rainfall 0.00 in
Snow Depth Not available.
5:49 AM 7:16 PM
Waning Crescent, 27% visible
METAR VIJP 282330Z VRB01KT 2500 HZ SCT025 FEW030CB OVC090 27/26 Q1003 TEMPO 1500 TSRA
Pressure 29.62 in
Visibility 1.6 miles
Clouds Scattered Clouds 2500 ft
Few 3000 ft
Overcast 9000 ft
Heat Index 88 °F
Dew Point 79 °F
Humidity 94%
Rainfall 0.00 in
Snow Depth Not available.
5:49 AM 7:16 PM
Waning Crescent, 27% visible
METAR VIJP 282330Z VRB01KT 2500 HZ SCT025 FEW030CB OVC090 27/26 Q1003 TEMPO 1500 TSRA

10-Day Weather Forecast

No radar image for this location.
×

Almanac

Astronomy

Jul. 29, 2016 Rise Set
Actual Time
Civil Twilight
Nautical Twilight
Astronomical Twilight
Moon
Length of Visible Light
Length of Day
Tomorrow will be .
, % of the Moon is Illuminated

Today's Extremes

Country Highs Country Lows

Community

WunderPhotos

Upload Photos

1,928,236 photos uploaded!

WunderBlog® & News

Nearby

Air Quality

  Air Quality AQ Index Pollutant
Not available.

Snow Depth

Station Depth Elevation

Earthquake Activity

City Distance Mag. Time & Date
Minimum magnitude displayed is 2.5.

Coastal Water Temperatures

Place Temperature

Stations

Nearby Weather Stations

Station Location Temp. Windchill Dew Point Humidity Wind Precip. Elev Updated Type